Time;durP1;ratioP1;P1;durP2;ratioP2;P2;SDS_P1;SDS_P2;PMS_P1;PMS_P2;Temp;Humidity;BMP_temperature;BMP_pressure;BME280_temperature;BME280_humidity;BME280_pressure;Samples;Min_cycle;Max_cycle;Signal;HPM_P1;HPM_P2
2023/06/24 00:00:48;;;;;;;8.47;4.83;;;17.60;31.50;;;;;;5025513;28;46523;-77
2023/06/24 00:03:16;;;;;;;9.23;5.27;;;17.50;32.20;;;;;;5030888;28;47824;-78
2023/06/24 00:05:43;;;;;;;9.60;5.10;;;17.50;32.40;;;;;;5027111;28;46658;-77
2023/06/24 00:08:08;;;;;;;8.07;4.80;;;17.50;32.60;;;;;;5025709;28;46427;-79
2023/06/24 00:10:34;;;;;;;8.50;5.20;;;17.50;31.60;;;;;;5029862;28;46467;-77
2023/06/24 00:13:03;;;;;;;7.07;4.23;;;17.50;32.80;;;;;;5027896;28;46478;-78
2023/06/24 00:15:28;;;;;;;7.43;4.77;;;17.50;32.70;;;;;;5024848;28;46638;-78
2023/06/24 00:17:54;;;;;;;9.27;5.07;;;17.50;32.80;;;;;;5025463;28;46372;-77
2023/06/24 00:20:19;;;;;;;9.70;4.93;;;17.50;32.70;;;;;;5027302;28;46466;-77
2023/06/24 00:22:48;;;;;;;10.67;5.70;;;17.50;31.70;;;;;;5022264;28;46054;-78
2023/06/24 00:25:14;;;;;;;8.43;5.30;;;17.60;32.70;;;;;;5027489;28;46618;-78
2023/06/24 00:27:42;;;;;;;8.77;4.67;;;17.60;32.60;;;;;;5026831;28;46851;-79
2023/06/24 00:30:08;;;;;;;8.73;5.30;;;17.60;32.70;;;;;;5027020;28;46514;-78
2023/06/24 00:32:33;;;;;;;7.80;4.40;;;17.50;31.80;;;;;;5030833;28;46718;-78
2023/06/24 00:34:59;;;;;;;7.73;5.10;;;17.60;32.70;;;;;;5024244;28;46617;-78
2023/06/24 00:37:25;;;;;;;8.37;4.90;;;19.60;34.40;;;;;;5033373;28;48143;-78
2023/06/24 00:39:51;;;;;;;6.73;4.77;;;17.70;32.20;;;;;;5027908;28;46642;-77
2023/06/24 00:42:17;;;;;;;7.30;4.70;;;17.70;31.10;;;;;;5025405;28;46545;-78
2023/06/24 00:44:43;;;;;;;8.40;5.63;;;17.80;32.10;;;;;;5026134;28;46624;-77
2023/06/24 00:47:09;;;;;;;7.53;4.83;;;17.70;32.10;;;;;;5025892;28;47240;-77
2023/06/24 00:49:35;;;;;;;7.97;5.00;;;17.60;32.60;;;;;;5024841;28;46488;-77
2023/06/24 00:52:01;;;;;;;7.50;4.80;;;17.70;31.80;;;;;;5027825;28;46458;-79
2023/06/24 00:54:30;;;;;;;8.70;4.87;;;17.70;32.50;;;;;;5027453;28;46479;-78
2023/06/24 00:56:57;;;;;;;10.20;5.53;;;17.70;31.90;;;;;;5023981;28;47209;-78
2023/06/24 00:59:23;;;;;;;8.63;4.90;;;17.80;32.10;;;;;;5030098;28;47596;-79
2023/06/24 01:01:52;;;;;;;10.40;5.23;;;17.70;30.90;;;;;;5026657;28;45875;-76
2023/06/24 01:04:19;;;;;;;10.07;5.40;;;17.80;32.10;;;;;;5027402;28;46410;-78
2023/06/24 01:06:45;;;;;;;7.83;5.33;;;17.70;33.20;;;;;;5033015;28;48570;-78
2023/06/24 01:09:12;;;;;;;11.50;4.90;;;17.70;31.90;;;;;;5027285;28;45847;-77
2023/06/24 01:11:38;;;;;;;8.20;4.30;;;17.70;32.00;;;;;;5029693;28;46474;-80
2023/06/24 01:14:04;;;;;;;8.13;5.07;;;17.70;31.90;;;;;;5032602;28;47609;-79
2023/06/24 01:16:55;;;;;;;9.20;5.87;;;17.70;30.90;;;;;;5028286;28;48471;-79
2023/06/24 01:19:38;;;;;;;7.87;4.90;;;17.70;32.20;;;;;;5031215;28;46859;-78
2023/06/24 01:22:42;;;;;;;9.20;5.47;;;17.60;31.60;;;;;;5051859;28;46747;-78
2023/06/24 01:25:43;;;;;;;10.07;5.03;;;17.60;33.00;;;;;;5031083;28;46483;-78
2023/06/24 01:28:36;;;;;;;10.27;5.20;;;17.60;32.40;;;;;;5033466;28;46496;-78
2023/06/24 01:31:27;;;;;;;10.60;5.10;;;17.70;31.90;;;;;;5033047;28;46539;-78
2023/06/24 01:34:26;;;;;;;9.27;5.67;;;17.70;32.00;;;;;;5032490;28;46453;-78
2023/06/24 01:37:08;;;;;;;10.10;6.20;;;17.70;32.10;;;;;;5031840;28;46435;-78
2023/06/24 01:39:38;;;;;;;11.57;6.50;;;17.60;32.20;;;;;;5033694;28;46718;-77
2023/06/24 01:42:14;;;;;;;10.20;6.47;;;17.60;31.70;;;;;;5028891;28;46382;-75
2023/06/24 01:44:43;;;;;;;10.50;6.60;;;17.70;32.90;;;;;;5031370;28;46451;-78
2023/06/24 01:47:10;;;;;;;10.40;6.57;;;17.60;33.10;;;;;;5031225;28;46494;-78
2023/06/24 01:49:41;;;;;;;13.90;7.03;;;17.70;33.70;;;;;;5034160;28;46730;-78
2023/06/24 01:52:09;;;;;;;9.20;6.13;;;17.50;33.50;;;;;;5030297;28;46878;-77
2023/06/24 01:54:36;;;;;;;12.10;6.53;;;17.50;34.40;;;;;;5040297;28;46380;-78
2023/06/24 01:57:03;;;;;;;11.20;7.20;;;17.50;34.60;;;;;;5037072;28;45907;-78
2023/06/24 01:59:29;;;;;;;8.40;5.57;;;17.40;35.10;;;;;;5029916;28;46932;-78
2023/06/24 02:01:56;;;;;;;8.70;5.33;;;17.40;34.70;;;;;;5029546;28;46590;-78
2023/06/24 02:04:23;;;;;;;8.50;5.67;;;17.40;35.80;;;;;;5025457;28;46595;-77
2023/06/24 02:06:50;;;;;;;9.53;5.50;;;17.30;36.20;;;;;;5029195;28;46519;-78
2023/06/24 02:09:17;;;;;;;8.97;5.43;;;17.50;36.60;;;;;;5025255;28;48547;-77
2023/06/24 02:11:44;;;;;;;10.80;6.03;;;17.30;35.70;;;;;;5027466;28;46959;-78
2023/06/24 02:14:10;;;;;;;8.53;5.03;;;17.20;36.60;;;;;;5037823;28;46443;-77
2023/06/24 02:16:40;;;;;;;8.17;5.27;;;17.20;36.60;;;;;;5031025;28;46889;-77
2023/06/24 02:19:08;;;;;;;8.30;5.60;;;17.20;36.90;;;;;;5027390;28;46419;-77
2023/06/24 02:21:35;;;;;;;8.67;5.73;;;17.20;36.30;;;;;;5037375;28;46499;-77
2023/06/24 02:24:01;;;;;;;9.20;6.07;;;17.10;37.20;;;;;;5028576;28;46554;-76
2023/06/24 02:26:27;;;;;;;10.97;5.70;;;17.10;37.20;;;;;;5029997;28;46883;-78
2023/06/24 02:28:54;;;;;;;8.00;5.10;;;17.10;37.20;;;;;;5028695;28;46996;-77
2023/06/24 02:31:20;;;;;;;8.17;4.70;;;17.10;36.50;;;;;;5029734;28;46558;-79
2023/06/24 02:33:45;;;;;;;8.00;4.90;;;17.10;37.50;;;;;;5035427;28;46217;-78
2023/06/24 02:36:11;;;;;;;8.00;5.50;;;17.10;37.50;;;;;;5027604;28;46923;-79
2023/06/24 02:38:37;;;;;;;8.57;5.70;;;17.10;37.50;;;;;;5032608;28;46509;-80
2023/06/24 02:41:04;;;;;;;13.53;5.77;;;17.10;36.50;;;;;;5034695;28;45878;-81
2023/06/24 02:43:30;;;;;;;10.07;5.70;;;17.00;37.40;;;;;;5030781;28;46513;-78
2023/06/24 02:46:00;;;;;;;10.67;5.60;;;17.00;37.30;;;;;;5030387;28;46819;-78
2023/06/24 02:48:27;;;;;;;10.57;5.70;;;17.10;37.60;;;;;;5028760;28;46736;-78
2023/06/24 02:50:53;;;;;;;8.77;5.67;;;17.00;36.80;;;;;;5035755;28;46257;-77
2023/06/24 02:53:19;;;;;;;8.93;5.83;;;17.20;38.20;;;;;;5027360;28;46685;-77
2023/06/24 02:55:46;;;;;;;9.53;5.83;;;17.00;38.30;;;;;;5032976;28;45879;-78
2023/06/24 02:58:13;;;;;;;14.33;5.53;;;16.90;38.30;;;;;;5029621;28;47062;-78
2023/06/24 03:00:38;;;;;;;8.80;6.10;;;16.90;37.90;;;;;;5032332;28;46738;-79
2023/06/24 03:03:05;;;;;;;8.80;5.93;;;16.90;38.90;;;;;;5027716;28;46489;-78
2023/06/24 03:05:32;;;;;;;7.90;5.60;;;16.90;39.00;;;;;;5027582;28;46499;-78
2023/06/24 03:07:58;;;;;;;7.77;4.87;;;16.90;39.10;;;;;;5027726;28;46690;-79
2023/06/24 03:10:25;;;;;;;8.07;5.50;;;17.00;39.10;;;;;;5024661;28;46688;-77
2023/06/24 03:12:51;;;;;;;16.10;5.50;;;17.00;37.80;;;;;;5037218;28;46276;-78
2023/06/24 03:15:17;;;;;;;10.50;5.47;;;17.00;38.80;;;;;;5029474;28;46007;-77
2023/06/24 03:17:42;;;;;;;7.70;4.97;;;17.00;38.80;;;;;;5025637;28;47567;-78
2023/06/24 03:20:08;;;;;;;9.10;5.80;;;17.00;38.80;;;;;;5027811;28;45886;-79
2023/06/24 03:22:34;;;;;;;13.20;5.80;;;17.00;38.00;;;;;;5031302;28;46467;-77
2023/06/24 03:25:00;;;;;;;8.57;5.53;;;17.00;39.00;;;;;;5027567;28;45989;-78
2023/06/24 03:27:25;;;;;;;12.63;5.10;;;17.00;39.10;;;;;;5025632;28;46743;-76
2023/06/24 03:29:51;;;;;;;8.47;5.10;;;17.00;39.30;;;;;;5031283;28;46708;-77
2023/06/24 03:32:16;;;;;;;9.40;5.60;;;16.90;38.50;;;;;;5027976;28;46440;-78
2023/06/24 03:34:42;;;;;;;8.80;5.40;;;16.90;39.50;;;;;;5031851;28;46706;-78
2023/06/24 03:37:08;;;;;;;7.23;4.90;;;16.90;39.70;;;;;;5032809;28;48310;-78
2023/06/24 03:39:34;;;;;;;9.03;5.30;;;16.90;39.70;;;;;;5025687;28;46786;-79
2023/06/24 03:41:59;;;;;;;8.73;5.97;;;16.90;39.80;;;;;;5027747;28;45918;-78
2023/06/24 03:44:26;;;;;;;9.77;5.50;;;16.90;39.90;;;;;;5025559;28;46671;-78
2023/06/24 03:46:52;;;;;;;7.87;5.20;;;17.10;40.00;;;;;;5029105;28;46450;-77
2023/06/24 03:49:18;;;;;;;8.50;5.27;;;17.00;39.80;;;;;;5027296;28;46354;-80
2023/06/24 03:51:43;;;;;;;10.40;5.60;;;17.00;39.70;;;;;;5033274;28;46329;-77
2023/06/24 03:54:09;;;;;;;9.70;5.10;;;17.00;39.60;;;;;;5021987;28;46643;-77
2023/06/24 03:56:35;;;;;;;7.40;5.30;;;17.00;39.50;;;;;;5027020;28;46498;-78
2023/06/24 03:59:00;;;;;;;9.97;6.20;;;17.10;39.40;;;;;;5032772;28;46635;-78
2023/06/24 04:01:26;;;;;;;10.20;4.83;;;17.10;39.30;;;;;;5030679;28;46925;-78
2023/06/24 04:03:51;;;;;;;8.07;4.53;;;17.10;39.20;;;;;;5029035;28;46368;-80
2023/06/24 04:06:17;;;;;;;11.60;5.60;;;17.10;38.90;;;;;;5033299;28;47223;-79
2023/06/24 04:08:48;;;;;;;10.43;5.63;;;17.10;38.80;;;;;;5031274;28;46662;-79
2023/06/24 04:11:14;;;;;;;8.93;5.70;;;17.10;38.70;;;;;;5029205;28;46447;-79
2023/06/24 04:13:39;;;;;;;10.53;5.23;;;17.20;38.60;;;;;;5030523;28;46430;-76
2023/06/24 04:16:05;;;;;;;8.47;5.73;;;17.20;38.50;;;;;;5027533;28;46700;-77
2023/06/24 04:18:30;;;;;;;9.07;5.80;;;17.20;38.40;;;;;;5027667;28;46502;-76
2023/06/24 04:20:57;;;;;;;10.60;5.60;;;17.30;38.50;;;;;;5027486;28;46955;-78
2023/06/24 04:23:22;;;;;;;8.90;5.10;;;17.30;38.30;;;;;;5026713;28;46429;-77
2023/06/24 04:25:49;;;;;;;7.93;5.40;;;17.40;38.10;;;;;;5026420;28;46968;-79
2023/06/24 04:28:15;;;;;;;8.30;5.50;;;17.50;37.90;;;;;;5028096;28;46511;-78
2023/06/24 04:30:40;;;;;;;8.33;5.50;;;17.60;36.60;;;;;;5028841;28;46525;-77
2023/06/24 04:33:06;;;;;;;8.80;5.70;;;18.60;38.70;;;;;;5025025;28;46640;-78
2023/06/24 04:35:32;;;;;;;8.73;5.30;;;17.60;37.70;;;;;;5024607;28;47051;-77
2023/06/24 04:37:57;;;;;;;7.83;5.07;;;17.70;37.40;;;;;;5025068;28;47056;-77
2023/06/24 04:40:23;;;;;;;7.50;4.57;;;17.80;37.30;;;;;;5023965;28;46415;-77
2023/06/24 04:42:49;;;;;;;8.03;4.50;;;17.80;35.80;;;;;;5023214;28;46711;-78
2023/06/24 04:45:14;;;;;;;8.00;5.37;;;17.90;36.70;;;;;;5024643;28;46549;-78
2023/06/24 04:47:40;;;;;;;7.87;4.87;;;17.90;36.40;;;;;;5026423;28;46327;-79
2023/06/24 04:50:09;;;;;;;7.50;4.53;;;18.00;36.10;;;;;;5033931;28;45794;-78
2023/06/24 04:52:35;;;;;;;8.53;4.57;;;18.10;34.50;;;;;;5025394;28;46631;-78
2023/06/24 04:55:00;;;;;;;7.80;4.40;;;18.20;35.50;;;;;;5027376;28;46489;-77
2023/06/24 04:57:28;;;;;;;11.70;4.10;;;18.30;35.10;;;;;;5031440;28;46562;-78
2023/06/24 04:59:55;;;;;;;8.60;5.20;;;18.40;36.00;;;;;;5032615;28;47508;-78
2023/06/24 05:02:20;;;;;;;7.10;4.30;;;18.50;33.30;;;;;;5026772;28;47232;-78
2023/06/24 05:04:46;;;;;;;7.90;4.77;;;18.60;34.30;;;;;;5031434;28;46857;-76
2023/06/24 05:07:11;;;;;;;7.40;4.60;;;18.70;33.70;;;;;;5028041;28;46439;-78
2023/06/24 05:09:37;;;;;;;8.70;4.73;;;18.90;33.10;;;;;;5028029;28;46772;-77
2023/06/24 05:12:07;;;;;;;8.17;4.40;;;18.90;33.00;;;;;;5027821;28;46886;-77
2023/06/24 05:14:34;;;;;;;6.27;4.20;;;19.00;33.20;;;;;;5028569;28;47074;-77
2023/06/24 05:17:00;;;;;;;6.40;4.00;;;19.10;33.20;;;;;;5030319;28;46564;-77
2023/06/24 05:19:26;;;;;;;8.90;5.20;;;19.30;32.80;;;;;;5033534;28;46384;-77
2023/06/24 05:21:51;;;;;;;7.00;4.30;;;19.30;30.80;;;;;;5029929;28;46629;-78
2023/06/24 05:24:17;;;;;;;7.57;4.63;;;19.40;33.00;;;;;;5028592;28;46407;-77
2023/06/24 05:26:43;;;;;;;6.90;4.90;;;;;;;;;;5029447;28;46455;-78
2023/06/24 05:29:08;;;;;;;8.80;4.40;;;19.60;30.10;;;;;;5029027;28;46769;-79
2023/06/24 05:31:34;;;;;;;6.67;3.77;;;19.70;30.80;;;;;;5028713;28;46392;-78
2023/06/24 05:34:00;;;;;;;7.83;4.50;;;19.90;30.40;;;;;;5036652;28;48383;-78
2023/06/24 05:36:25;;;;;;;7.17;4.47;;;20.10;30.90;;;;;;5030388;28;46737;-80
2023/06/24 05:38:51;;;;;;;8.73;4.00;;;20.40;29.70;;;;;;5033032;28;46469;-78
2023/06/24 05:41:16;;;;;;;7.97;4.77;;;20.30;29.10;;;;;;5049556;28;46532;-81
2023/06/24 05:43:43;;;;;;;7.73;4.50;;;20.50;28.90;;;;;;5035241;28;46470;-77
2023/06/24 05:46:09;;;;;;;7.47;4.60;;;20.60;28.50;;;;;;5030637;28;46415;-81
2023/06/24 05:48:34;;;;;;;7.60;4.43;;;20.60;28.30;;;;;;5033289;28;46483;-80
2023/06/24 05:51:00;;;;;;;10.80;3.90;;;20.80;27.30;;;;;;5029259;28;46582;-77
2023/06/24 05:53:25;;;;;;;9.33;4.50;;;20.80;28.10;;;;;;5025019;28;46459;-77
2023/06/24 05:55:51;;;;;;;6.40;4.23;;;20.80;27.30;;;;;;5029873;28;46442;-78
2023/06/24 05:58:16;;;;;;;9.37;4.90;;;20.90;27.70;;;;;;5027605;28;46720;-77
2023/06/24 06:00:42;;;;;;;6.13;3.83;;;20.90;26.80;;;;;;5028698;28;46470;-78
2023/06/24 06:03:09;;;;;;;6.90;4.70;;;20.90;27.60;;;;;;5034333;28;48508;-77
2023/06/24 06:05:34;;;;;;;9.53;5.00;;;20.90;27.40;;;;;;5029537;28;46509;-78
2023/06/24 06:08:00;;;;;;;12.50;4.57;;;21.20;27.20;;;;;;5027964;28;46980;-78
2023/06/24 06:10:25;;;;;;;7.00;3.73;;;21.60;26.60;;;;;;5028420;28;46904;-78
2023/06/24 06:12:52;;;;;;;6.97;4.00;;;22.20;24.50;;;;;;5029225;28;46679;-78
2023/06/24 06:15:18;;;;;;;6.30;4.07;;;22.70;24.40;;;;;;5037534;28;47381;-79
2023/06/24 06:17:45;;;;;;;7.67;4.17;;;23.00;24.50;;;;;;5029148;28;46460;-79
2023/06/24 06:20:11;;;;;;;7.80;4.37;;;23.30;23.40;;;;;;5030593;28;46420;-81
2023/06/24 06:22:37;;;;;;;8.60;4.70;;;23.40;22.50;;;;;;5032984;28;48467;-80
2023/06/24 06:25:05;;;;;;;10.03;4.60;;;23.30;22.10;;;;;;5027941;28;46476;-78
2023/06/24 06:27:31;;;;;;;8.40;5.03;;;23.20;22.00;;;;;;5029389;28;46511;-79
2023/06/24 06:29:56;;;;;;;8.33;4.23;;;23.20;22.20;;;;;;5030217;28;46799;-78
2023/06/24 06:32:22;;;;;;;10.10;4.63;;;23.20;22.00;;;;;;5029045;28;47146;-77
2023/06/24 06:34:47;;;;;;;8.50;4.30;;;23.40;22.00;;;;;;5026777;28;46499;-78
2023/06/24 06:37:13;;;;;;;9.67;3.67;;;23.50;21.70;;;;;;5031372;28;46589;-78
2023/06/24 06:39:38;;;;;;;6.40;4.10;;;23.50;22.20;;;;;;5030260;28;46648;-78
2023/06/24 06:42:04;;;;;;;7.80;4.10;;;23.60;20.90;;;;;;5026326;28;46764;-76
2023/06/24 06:44:30;;;;;;;6.93;4.47;;;23.50;20.60;;;;;;5029467;28;46542;-78
2023/06/24 06:46:55;;;;;;;6.53;4.10;;;23.60;20.50;;;;;;5034495;28;46455;-78
2023/06/24 06:49:22;;;;;;;7.80;4.70;;;23.80;19.80;;;;;;5027801;28;45933;-78
2023/06/24 06:51:47;;;;;;;6.53;3.50;;;23.90;18.20;;;;;;5034677;28;49433;-77
2023/06/24 06:54:13;;;;;;;8.63;4.60;;;23.90;18.60;;;;;;5024589;28;46700;-78
2023/06/24 06:56:39;;;;;;;6.23;4.30;;;23.90;18.40;;;;;;5029822;28;46485;-79
2023/06/24 06:59:05;;;;;;;6.30;3.77;;;24.00;18.20;;;;;;5026164;28;46425;-78
2023/06/24 07:01:30;;;;;;;7.90;4.40;;;24.00;18.10;;;;;;5023792;28;47463;-79
2023/06/24 07:03:56;;;;;;;6.00;3.77;;;24.00;17.80;;;;;;5027596;28;46583;-80
2023/06/24 07:06:21;;;;;;;8.10;4.10;;;24.00;17.70;;;;;;5030804;28;46532;-79
2023/06/24 07:08:47;;;;;;;7.27;4.20;;;24.40;17.50;;;;;;5034995;28;46702;-78
2023/06/24 07:11:12;;;;;;;7.83;4.37;;;24.40;16.80;;;;;;5028332;28;47339;-79
2023/06/24 07:13:38;;;;;;;7.80;3.80;;;24.30;16.00;;;;;;5029745;28;46393;-78
2023/06/24 07:16:04;;;;;;;5.47;3.30;;;24.20;14.90;;;;;;5026698;28;46733;-78
2023/06/24 07:18:30;;;;;;;7.13;3.43;;;24.20;14.30;;;;;;5025410;28;46772;-78
2023/06/24 07:20:56;;;;;;;6.33;3.30;;;24.10;14.10;;;;;;5041186;28;48552;-79
2023/06/24 07:23:22;;;;;;;9.53;3.40;;;24.10;13.70;;;;;;5025178;28;46775;-78
2023/06/24 07:25:48;;;;;;;7.47;3.50;;;24.00;13.30;;;;;;5031167;28;46744;-76
2023/06/24 07:28:13;;;;;;;7.70;3.37;;;23.90;12.30;;;;;;5028410;28;46707;-77
2023/06/24 07:30:40;;;;;;;8.63;3.00;;;24.10;12.20;;;;;;5033327;28;48157;-77
2023/06/24 07:33:07;;;;;;;4.80;3.00;;;24.00;11.70;;;;;;5029789;28;46810;-77
2023/06/24 07:35:32;;;;;;;8.63;3.93;;;24.20;11.60;;;;;;5028387;28;46521;-78
2023/06/24 07:37:59;;;;;;;5.87;3.80;;;24.30;11.50;;;;;;5027626;28;46762;-78
2023/06/24 07:40:24;;;;;;;6.33;3.83;;;24.40;11.00;;;;;;5028029;28;46198;-77
2023/06/24 07:42:50;;;;;;;7.63;3.57;;;24.50;11.10;;;;;;5024814;28;46401;-79
2023/06/24 07:45:15;;;;;;;7.07;4.20;;;24.50;10.90;;;;;;5033988;28;46795;-78
2023/06/24 07:47:41;;;;;;;7.30;3.87;;;24.30;11.50;;;;;;5028387;28;46614;-76
2023/06/24 07:50:08;;;;;;;5.73;3.20;;;24.50;10.50;;;;;;5031122;28;48526;-77
2023/06/24 07:52:34;;;;;;;8.13;5.10;;;24.30;10.40;;;;;;5036251;28;46901;-78
2023/06/24 07:54:59;;;;;;;8.33;4.87;;;24.00;10.90;;;;;;5029144;28;46766;-77
2023/06/24 07:57:27;;;;;;;6.37;3.97;;;24.00;11.00;;;;;;5027373;28;45941;-78
2023/06/24 07:59:54;;;;;;;7.80;4.17;;;24.30;10.60;;;;;;5030199;28;46759;-79
2023/06/24 08:02:20;;;;;;;8.90;4.17;;;24.20;10.40;;;;;;5027716;28;46303;-79
2023/06/24 08:04:45;;;;;;;7.20;4.27;;;24.50;10.10;;;;;;5037101;28;46495;-80
2023/06/24 08:07:11;;;;;;;7.77;4.33;;;24.70;9.70;;;;;;5029591;28;46747;-79
2023/06/24 08:09:36;;;;;;;8.90;4.10;;;24.80;9.90;;;;;;5039968;28;49423;-80
2023/06/24 08:12:02;;;;;;;7.73;5.03;;;24.80;8.90;;;;;;5031903;28;46530;-79
2023/06/24 08:14:28;;;;;;;9.70;5.60;;;24.60;9.90;;;;;;5030061;28;46213;-79
2023/06/24 08:16:53;;;;;;;8.07;4.17;;;24.60;9.70;;;;;;5029737;28;46414;-79
2023/06/24 08:19:19;;;;;;;6.20;4.10;;;24.30;9.90;;;;;;5028244;28;46596;-78
2023/06/24 08:21:45;;;;;;;7.00;4.20;;;24.60;8.70;;;;;;5036422;28;48850;-75
2023/06/24 08:24:10;;;;;;;9.13;4.50;;;24.80;9.50;;;;;;5029139;28;46563;-80
2023/06/24 08:26:36;;;;;;;7.53;4.43;;;25.20;9.00;;;;;;5034104;28;46539;-79
2023/06/24 08:29:01;;;;;;;9.77;4.67;;;25.70;8.40;;;;;;5028246;28;46530;-79
2023/06/24 08:31:27;;;;;;;7.47;4.33;;;26.20;5.70;;;;;;5029086;28;46772;-78
2023/06/24 08:33:55;;;;;;;9.73;4.80;;;26.10;6.70;;;;;;5033572;28;46387;-79
2023/06/24 08:36:25;;;;;;;11.60;5.80;;;26.20;6.50;;;;;;5034681;28;46571;-79
2023/06/24 08:38:51;;;;;;;8.10;4.53;;;26.20;6.40;;;;;;5032433;28;46750;-79
2023/06/24 08:41:17;;;;;;;9.63;4.47;;;26.00;6.50;;;;;;5036221;28;46758;-76
2023/06/24 08:43:43;;;;;;;10.27;5.23;;;26.20;6.30;;;;;;5030408;28;46439;-77
2023/06/24 08:46:08;;;;;;;7.20;5.00;;;26.30;6.10;;;;;;5039187;28;46623;-79
2023/06/24 08:48:39;;;;;;;6.90;4.50;;;26.20;6.10;;;;;;5027758;28;46380;-79
2023/06/24 08:51:08;;;;;;;9.30;4.43;;;26.10;6.10;;;;;;5029796;28;46415;-81
2023/06/24 08:53:34;;;;;;;9.20;4.20;;;25.90;6.20;;;;;;5026145;28;46719;-78
2023/06/24 08:56:00;;;;;;;8.10;4.57;;;25.60;6.30;;;;;;5027720;28;46821;-79
2023/06/24 08:58:26;;;;;;;10.40;5.20;;;25.40;6.90;;;;;;5030262;28;48092;-78
2023/06/24 09:00:52;;;;;;;8.30;5.27;;;26.00;5.70;;;;;;5028255;28;46946;-78
2023/06/24 09:03:18;;;;;;;13.63;4.80;;;26.10;6.50;;;;;;5034153;28;46374;-79
2023/06/24 09:05:44;;;;;;;7.73;5.00;;;26.40;5.00;;;;;;5023149;28;46512;-79
2023/06/24 09:08:10;;;;;;;8.53;4.97;;;26.80;5.60;;;;;;5026241;28;47034;-80
2023/06/24 09:10:37;;;;;;;11.80;4.40;;;27.00;5.00;;;;;;5029202;28;46755;-79
2023/06/24 09:13:04;;;;;;;6.70;3.70;;;27.30;4.70;;;;;;5035706;28;45899;-80
2023/06/24 09:15:33;;;;;;;7.17;4.07;;;27.40;4.80;;;;;;5027395;28;46872;-79
2023/06/24 09:18:03;;;;;;;6.73;4.70;;;27.30;4.70;;;;;;5034079;28;49377;-81
2023/06/24 09:20:30;;;;;;;15.60;5.13;;;27.30;4.80;;;;;;5030153;28;46506;-79
2023/06/24 09:23:03;;;;;;;7.47;4.83;;;26.90;3.60;;;;;;5027152;28;46466;-81
2023/06/24 09:25:29;;;;;;;10.70;4.70;;;26.60;3.40;;;;;;5029394;28;46569;-81
2023/06/24 09:27:59;;;;;;;9.73;4.90;;;26.60;4.60;;;;;;5030695;28;46626;-80
2023/06/24 09:30:25;;;;;;;7.40;4.60;;;26.30;4.20;;;;;;5029517;28;46400;-80
2023/06/24 09:32:53;;;;;;;12.37;3.67;;;25.80;4.00;;;;;;5027090;28;46186;-77
2023/06/24 09:35:21;;;;;;;10.37;5.10;;;26.10;5.00;;;;;;5026727;28;46433;-76
2023/06/24 09:37:54;;;;;;;7.20;4.00;;;26.30;4.20;;;;;;5028223;28;46635;-78
2023/06/24 09:40:20;;;;;;;11.00;4.40;;;26.40;4.20;;;;;;5028461;28;46427;-78
2023/06/24 09:42:53;;;;;;;10.10;4.60;;;26.60;4.30;;;;;;5028435;28;45864;-78
2023/06/24 09:45:23;;;;;;;9.83;4.30;;;26.30;4.20;;;;;;5031484;28;46445;-78
2023/06/24 09:47:49;;;;;;;10.70;4.63;;;26.30;4.20;;;;;;5026741;28;47295;-77
2023/06/24 09:50:15;;;;;;;6.37;4.30;;;26.20;5.10;;;;;;5040211;28;46716;-77
2023/06/24 09:52:43;;;;;;;6.93;5.10;;;26.20;4.10;;;;;;5038906;28;46624;-77
2023/06/24 09:55:09;;;;;;;10.90;4.83;;;26.50;4.00;;;;;;5035905;28;46412;-78
2023/06/24 09:57:35;;;;;;;7.40;5.07;;;26.20;4.10;;;;;;5033978;28;48542;-78
2023/06/24 10:00:01;;;;;;;7.80;4.93;;;26.40;4.20;;;;;;5034699;28;46485;-77
2023/06/24 10:02:29;;;;;;;7.90;4.40;;;26.50;3.40;;;;;;5032159;28;46526;-77
2023/06/24 10:04:55;;;;;;;9.17;4.80;;;26.50;4.30;;;;;;5033760;28;46461;-77
2023/06/24 10:07:21;;;;;;;9.10;4.57;;;26.50;3.80;;;;;;5031704;28;47167;-76
2023/06/24 10:09:48;;;;;;;7.37;4.00;;;26.60;3.60;;;;;;5033098;28;46474;-76
2023/06/24 10:12:14;;;;;;;9.80;4.90;;;26.40;4.20;;;;;;5033699;28;46704;-77
2023/06/24 10:14:40;;;;;;;9.47;5.03;;;25.80;4.10;;;;;;5030879;28;46584;-78
2023/06/24 10:17:05;;;;;;;7.67;4.80;;;25.10;5.20;;;;;;5031692;28;47319;-78
2023/06/24 10:19:39;;;;;;;8.30;4.30;;;25.10;5.70;;;;;;5039932;28;46970;-77
2023/06/24 10:22:09;;;;;;;9.00;3.77;;;25.80;3.60;;;;;;5033547;28;46637;-77
2023/06/24 10:24:37;;;;;;;7.60;3.93;;;26.20;4.10;;;;;;5048996;28;46761;-76
2023/06/24 10:27:04;;;;;;;6.17;4.27;;;26.40;4.20;;;;;;5029354;28;47093;-79
2023/06/24 10:29:34;;;;;;;9.40;4.37;;;26.60;3.20;;;;;;5031292;28;46315;-77
2023/06/24 10:32:08;;;;;;;7.90;4.40;;;25.90;1.80;;;;;;5033121;28;46395;-79
2023/06/24 10:34:39;;;;;;;7.03;4.03;;;25.80;3.20;;;;;;5030736;28;46104;-78
2023/06/24 10:37:05;;;;;;;8.30;4.20;;;25.80;3.00;;;;;;5031100;28;46670;-77
2023/06/24 10:39:59;;;;;;;7.43;4.63;;;26.10;3.00;;;;;;5050678;28;45770;-77
2023/06/24 10:42:32;;;;;;;5.87;3.90;;;26.20;1.60;;;;;;5031748;28;46414;-76
2023/06/24 10:45:19;;;;;;;6.87;4.30;;;26.40;2.40;;;;;;5030136;28;47911;-79
2023/06/24 10:47:59;;;;;;;9.27;5.10;;;26.40;1.60;;;;;;5032392;28;47534;-77
2023/06/24 10:50:25;;;;;;;12.13;3.20;;;26.40;1.50;;;;;;5033476;28;46415;-79
2023/06/24 10:52:55;;;;;;;6.30;4.20;;;26.60;1.00;;;;;;5030154;28;46453;-77
2023/06/24 10:55:22;;;;;;;5.70;3.90;;;26.80;1.00;;;;;;5035486;28;46439;-79
2023/06/24 10:57:48;;;;;;;8.43;4.30;;;27.00;1.00;;;;;;5031029;28;47475;-79
2023/06/24 11:00:15;;;;;;;6.07;3.80;;;27.30;1.00;;;;;;5035339;28;46432;-81
2023/06/24 11:02:41;;;;;;;9.57;4.80;;;27.40;1.00;;;;;;5029960;28;46546;-78
2023/06/24 11:05:07;;;;;;;6.77;3.50;;;27.50;1.00;;;;;;5036186;28;46916;-77
2023/06/24 11:07:35;;;;;;;5.77;3.83;;;27.20;1.00;;;;;;5030589;28;47377;-78
2023/06/24 11:10:12;;;;;;;9.70;4.40;;;26.70;2.20;;;;;;5031175;28;46579;-78
2023/06/24 11:12:39;;;;;;;6.43;3.97;;;26.60;1.00;;;;;;5032688;28;46692;-78
2023/06/24 11:15:07;;;;;;;6.07;3.60;;;26.80;1.20;;;;;;5039996;28;46642;-78
2023/06/24 11:17:34;;;;;;;9.93;3.80;;;27.00;1.00;;;;;;5036836;28;46459;-77
2023/06/24 11:20:00;;;;;;;6.87;4.03;;;26.80;1.00;;;;;;5035352;28;46484;-78
2023/06/24 11:22:26;;;;;;;7.00;3.90;;;26.80;1.00;;;;;;5031016;28;46410;-78
2023/06/24 11:24:53;;;;;;;8.60;4.80;;;26.90;1.00;;;;;;5032299;28;46390;-78
2023/06/24 11:27:25;;;;;;;7.60;4.60;;;26.50;1.00;;;;;;5032857;28;46410;-78
2023/06/24 11:29:53;;;;;;;16.03;3.87;;;26.20;1.00;;;;;;5032836;28;47142;-77
2023/06/24 11:32:18;;;;;;;7.67;4.20;;;26.20;1.00;;;;;;5029691;28;46468;-78
2023/06/24 11:34:44;;;;;;;6.13;3.43;;;26.20;1.20;;;;;;5036981;28;46526;-78
2023/06/24 11:37:14;;;;;;;7.90;4.30;;;26.30;1.20;;;;;;5042795;28;47700;-77
2023/06/24 11:39:40;;;;;;;7.07;4.33;;;26.40;1.40;;;;;;5031672;28;45944;-77
2023/06/24 11:42:10;;;;;;;7.50;3.73;;;26.60;1.00;;;;;;5032922;28;46450;-77
2023/06/24 11:44:42;;;;;;;7.90;4.43;;;26.60;1.00;;;;;;5035953;28;46791;-79
2023/06/24 11:47:09;;;;;;;6.50;4.30;;;26.40;1.00;;;;;;5035789;28;48168;-77
2023/06/24 11:49:54;;;;;;;7.07;4.30;;;26.20;1.00;;;;;;5028677;28;47079;-77
2023/06/24 11:52:40;;;;;;;7.30;4.10;;;26.00;1.00;;;;;;5027041;28;46490;-78
2023/06/24 11:55:26;;;;;;;7.43;4.43;;;26.10;1.00;;;;;;5025753;28;46499;-77
2023/06/24 11:57:55;;;;;;;8.03;4.33;;;25.90;1.30;;;;;;5029534;28;46493;-79
2023/06/24 12:00:23;;;;;;;8.47;4.50;;;26.00;1.50;;;;;;5044423;28;46828;-78
2023/06/24 12:02:51;;;;;;;7.30;4.53;;;25.80;1.00;;;;;;5030329;28;46712;-73
2023/06/24 12:05:28;;;;;;;11.13;4.17;;;25.50;2.00;;;;;;5027427;28;46423;-81
2023/06/24 12:07:55;;;;;;;8.87;4.30;;;25.70;1.40;;;;;;5032666;28;46892;-80
2023/06/24 12:10:21;;;;;;;6.43;4.10;;;25.60;1.70;;;;;;5029394;28;46552;-78
2023/06/24 12:12:47;;;;;;;7.07;4.23;;;25.50;1.00;;;;;;5025519;28;46518;-76
2023/06/24 12:15:12;;;;;;;6.83;4.03;;;25.70;1.90;;;;;;5027267;28;46372;-79
2023/06/24 12:17:38;;;;;;;6.57;4.37;;;25.90;1.60;;;;;;5026755;28;48876;-78
2023/06/24 12:20:04;;;;;;;7.20;4.63;;;26.10;1.20;;;;;;5034891;28;46506;-77
2023/06/24 12:22:30;;;;;;;9.93;4.70;;;26.10;1.00;;;;;;5024643;28;46415;-76
2023/06/24 12:24:55;;;;;;;7.57;4.50;;;26.10;1.60;;;;;;5026679;28;46633;-79
2023/06/24 12:27:21;;;;;;;7.30;3.90;;;25.60;1.80;;;;;;5033204;28;48241;-80
2023/06/24 12:29:46;;;;;;;6.03;3.63;;;25.80;1.80;;;;;;5029782;28;46620;-79
2023/06/24 12:32:12;;;;;;;10.00;4.43;;;26.30;1.00;;;;;;5027472;28;46510;-78
2023/06/24 12:34:37;;;;;;;6.33;4.00;;;26.50;1.00;;;;;;5028754;28;46790;-80
2023/06/24 12:37:03;;;;;;;5.63;3.23;;;26.70;1.00;;;;;;5026495;28;46594;-80
2023/06/24 12:39:29;;;;;;;7.87;3.90;;;27.00;1.00;;;;;;5026903;28;46792;-78
2023/06/24 12:41:54;;;;;;;6.83;4.17;;;27.00;1.00;;;;;;5030730;28;46355;-78
2023/06/24 12:44:20;;;;;;;7.17;4.13;;;26.80;1.00;;;;;;5027572;28;46820;-79
2023/06/24 12:46:45;;;;;;;6.37;4.07;;;26.40;1.00;;;;;;5031290;28;47292;-77
2023/06/24 12:49:11;;;;;;;7.67;4.73;;;26.40;1.00;;;;;;5028969;28;46627;-80